Time;durP1;ratioP1;P1;durP2;ratioP2;P2;SDS_P1;SDS_P2;PMS_P1;PMS_P2;Temp;Humidity;BMP_temperature;BMP_pressure;BME280_temperature;BME280_humidity;BME280_pressure;Samples;Min_cycle;Max_cycle;Signal;HPM_P1;HPM_P2
2022/03/12 00:00:11;;;;;;;27.77;16.45;;;;;;;-0.63;70.59;95733.91;5034097;28;20203;-82
2022/03/12 00:02:38;;;;;;;27.15;15.43;;;;;;;-0.62;69.91;95740.75;5034119;28;20239;-82
2022/03/12 00:05:09;;;;;;;24.27;14.52;;;;;;;-0.56;69.55;95737.19;5034096;28;20566;-81
2022/03/12 00:07:42;;;;;;;22.48;15.00;;;;;;;-0.65;69.46;95740.84;5034131;28;20192;-81
2022/03/12 00:10:11;;;;;;;22.75;15.45;;;;;;;-0.71;71.03;95741.03;5034092;28;20200;-82
2022/03/12 00:12:38;;;;;;;26.25;15.70;;;;;;;-1.04;72.18;95749.66;5034043;28;20197;-81
2022/03/12 00:15:11;;;;;;;27.30;18.20;;;;;;;-0.94;73.10;95740.78;5033885;28;20546;-81
2022/03/12 00:17:39;;;;;;;35.55;21.75;;;;;;;-0.96;74.07;95745.16;5033649;28;20220;-81
2022/03/12 00:23:30;;;;;;;32.67;20.55;;;;;;;-1.42;79.09;95751.47;5032548;28;20204;-82
2022/03/12 00:25:58;;;;;;;30.42;17.77;;;;;;;-1.47;79.75;95745.56;5034054;28;20192;-81
2022/03/12 00:28:26;;;;;;;35.08;18.75;;;;;;;-1.53;81.29;95753.44;5034054;28;20199;-83
2022/03/12 00:30:55;;;;;;;27.17;16.92;;;;;;;-1.68;83.20;95743.53;5033601;28;20649;-81
2022/03/12 00:43:27;;;;;;;23.17;15.20;;;;;;;-2.19;90.17;95739.53;5033438;28;20199;-81
2022/03/12 00:45:56;;;;;;;23.13;15.45;;;;;;;-1.97;90.03;95746.78;5033339;28;20192;-81
2022/03/12 00:48:23;;;;;;;21.85;15.23;;;;;;;-2.02;90.38;95744.31;5033361;28;20198;-81
2022/03/12 00:50:50;;;;;;;22.58;15.65;;;;;;;-2.05;91.05;95746.94;5033281;28;20203;-81
2022/03/12 00:53:17;;;;;;;21.20;13.93;;;;;;;-2.05;91.02;95741.78;5033691;28;20294;-81
2022/03/12 00:55:44;;;;;;;18.40;11.20;;;;;;;-2.35;92.58;95745.03;5033639;28;20192;-81
2022/03/12 00:58:11;;;;;;;17.90;10.23;;;;;;;-2.58;94.09;95741.22;5033695;28;20243;-80
2022/03/12 01:00:38;;;;;;;14.00;8.88;;;;;;;-2.76;95.79;95741.56;5037370;28;20192;-81
2022/03/12 01:03:06;;;;;;;11.07;8.80;;;;;;;-2.83;96.13;95748.56;5037590;28;20206;-81
2022/03/12 01:05:53;;;;;;;12.52;8.13;;;;;;;-2.92;97.36;95746.16;5037193;28;20565;-82
2022/03/12 01:08:22;;;;;;;13.30;7.40;;;;;;;-3.09;97.72;95744.78;5037299;28;20232;-82
2022/03/12 01:10:49;;;;;;;14.90;9.07;;;;;;;-3.05;98.62;95754.13;5037434;28;20207;-82
2022/03/12 01:13:16;;;;;;;14.25;8.48;;;;;;;-3.04;98.52;95745.53;5037430;28;20669;-82
2022/03/12 01:15:43;;;;;;;10.77;9.30;;;;;;;-2.97;98.82;95757.38;5037509;28;20647;-81
2022/03/12 01:18:16;;;;;;;14.13;8.45;;;;;;;-2.76;98.59;95754.41;5037547;28;20212;-80
2022/03/12 01:20:43;;;;;;;14.07;10.43;;;;;;;-2.76;97.82;95753.56;5036254;28;20477;-80
2022/03/12 01:23:13;;;;;;;15.57;10.30;;;;;;;-2.57;97.17;95749.78;5037299;28;20201;-80
2022/03/12 01:25:40;;;;;;;11.57;7.60;;;;;;;-2.78;98.02;95750.19;5019200;28;20216;-81
2022/03/12 01:28:09;;;;;;;13.25;9.63;;;;;;;-2.47;96.95;95753.00;5037063;28;20302;-80
2022/03/12 01:30:36;;;;;;;11.80;8.73;;;;;;;-2.37;96.93;95750.19;5036812;28;20196;-80
2022/03/12 01:33:03;;;;;;;8.43;6.70;;;;;;;-2.85;96.21;95757.19;5037025;28;20200;-81
2022/03/12 01:35:32;;;;;;;8.93;7.22;;;;;;;-2.72;96.88;95763.75;5018710;28;20213;-80
2022/03/12 01:38:00;;;;;;;10.10;7.68;;;;;;;-2.95;97.58;95753.91;5036803;28;20231;-80
2022/03/12 01:40:27;;;;;;;11.40;6.93;;;;;;;-2.96;98.02;95739.38;5036905;28;20288;-80
2022/03/12 01:42:54;;;;;;;9.48;6.60;;;;;;;-2.81;96.90;95751.09;5036464;28;20205;-80
2022/03/12 01:45:27;;;;;;;9.95;6.68;;;;;;;-2.65;96.45;95751.63;5036811;28;20200;-81
2022/03/12 01:47:55;;;;;;;11.30;8.32;;;;;;;-2.41;95.79;95760.56;5036382;28;20224;-81
2022/03/12 01:50:24;;;;;;;8.40;6.53;;;;;;;-2.21;95.17;95748.16;5037107;28;20309;-79
2022/03/12 01:52:58;;;;;;;11.40;7.22;;;;;;;-2.02;94.26;95748.63;5018233;28;20206;-81
2022/03/12 01:55:30;;;;;;;10.48;6.57;;;;;;;-1.91;92.92;95738.91;5036638;28;20200;-80
2022/03/12 01:57:58;;;;;;;11.93;6.35;;;;;;;-1.83;91.25;95738.75;5036496;28;20309;-80
2022/03/12 02:00:27;;;;;;;12.68;8.60;;;;;;;-1.73;90.32;95742.81;5036540;28;20204;-80
2022/03/12 02:02:55;;;;;;;12.18;6.80;;;;;;;-1.72;89.57;95745.34;5036352;28;20204;-80
2022/03/12 02:05:27;;;;;;;13.32;8.00;;;;;;;-1.59;89.34;95741.59;5036536;28;20191;-81
2022/03/12 02:07:59;;;;;;;8.52;5.93;;;;;;;-1.56;88.10;95746.66;5018819;28;20203;-81
2022/03/12 02:10:26;;;;;;;8.77;6.35;;;;;;;-1.49;87.69;95739.63;5036221;28;20192;-81
2022/03/12 02:12:54;;;;;;;9.07;6.85;;;;;;;-1.36;86.75;95743.59;5036550;28;20235;-81
2022/03/12 02:15:21;;;;;;;12.50;7.65;;;;;;;-1.26;85.72;95751.94;5035993;28;20192;-80
2022/03/12 02:21:10;;;;;;;8.15;6.82;;;;;;;-1.09;84.23;95761.81;5035103;28;20214;-80
2022/03/12 02:23:48;;;;;;;9.55;6.60;;;;;;;-1.03;83.23;95764.22;5036211;28;20192;-80
2022/03/12 02:26:15;;;;;;;11.43;8.27;;;;;;;-1.10;82.77;95749.81;5035762;28;20192;-80
2022/03/12 02:28:42;;;;;;;10.23;7.53;;;;;;;-1.07;82.48;95762.63;5035682;28;20688;-80
2022/03/12 02:31:09;;;;;;;15.70;9.48;;;;;;;-1.05;82.39;95755.69;5036142;28;20207;-81
2022/03/12 02:33:36;;;;;;;15.15;8.70;;;;;;;-1.09;81.59;95761.81;5036221;28;20556;-80
2022/03/12 02:36:06;;;;;;;13.75;9.52;;;;;;;-1.08;81.57;95758.34;5017933;28;20557;-80
2022/03/12 02:38:34;;;;;;;15.95;9.65;;;;;;;-0.98;81.09;95757.22;5035880;28;20212;-81
2022/03/12 02:41:10;;;;;;;15.02;10.38;;;;;;;-1.02;80.90;95756.47;5035581;28;20685;-80
2022/03/12 02:43:43;;;;;;;14.93;9.52;;;;;;;-0.91;80.61;95768.19;5035883;28;20194;-80
2022/03/12 02:46:10;;;;;;;15.65;10.30;;;;;;;-0.86;80.85;95769.78;5035771;28;20204;-80
2022/03/12 02:48:38;;;;;;;15.23;9.52;;;;;;;-0.86;80.13;95768.94;5035373;28;20204;-81
2022/03/12 02:51:06;;;;;;;11.85;8.13;;;;;;;-0.90;79.56;95773.31;5035866;28;20235;-80
2022/03/12 02:53:33;;;;;;;11.27;7.78;;;;;;;-0.89;78.93;95776.72;5035766;28;20222;-81
2022/03/12 02:55:59;;;;;;;13.98;8.50;;;;;;;-0.88;79.28;95778.44;5035241;28;20204;-80
2022/03/12 02:58:28;;;;;;;11.80;8.60;;;;;;;-0.81;78.11;95777.41;5035224;28;20545;-81
2022/03/12 03:00:55;;;;;;;14.50;9.43;;;;;;;-0.81;78.72;95779.97;5035380;28;20204;-81
2022/03/12 03:03:22;;;;;;;14.80;8.82;;;;;;;-0.84;78.33;95770.59;5035233;28;20623;-81
2022/03/12 03:05:50;;;;;;;11.77;8.77;;;;;;;-0.78;78.22;95777.31;5035038;28;20660;-81
2022/03/12 03:08:20;;;;;;;9.15;7.22;;;;;;;-0.80;77.69;95787.66;5034949;28;20291;-80
2022/03/12 03:10:49;;;;;;;15.18;9.07;;;;;;;-0.78;78.08;95792.78;5035377;28;20662;-81
2022/03/12 03:13:36;;;;;;;11.65;7.90;;;;;;;-0.77;78.08;95792.72;5035542;28;20211;-80
2022/03/12 03:16:07;;;;;;;11.02;8.10;;;;;;;-0.77;78.22;95797.03;5034698;28;20214;-80
2022/03/12 03:18:38;;;;;;;14.13;9.10;;;;;;;-0.80;78.05;95795.41;5034712;28;20238;-80
2022/03/12 03:21:08;;;;;;;13.07;8.93;;;;;;;-0.76;78.16;95799.56;4999688;28;20288;-80
2022/03/12 03:23:35;;;;;;;14.98;11.07;;;;;;;-0.76;77.95;95788.44;5034614;28;20556;-81
2022/03/12 03:26:02;;;;;;;13.32;9.48;;;;;;;-0.83;77.99;95798.06;5035048;28;20192;-81
2022/03/12 03:28:29;;;;;;;14.10;10.25;;;;;;;-1.04;77.30;95802.00;5035184;28;20225;-80
2022/03/12 03:30:58;;;;;;;20.05;12.32;;;;;;;-1.21;78.08;95804.16;5034525;28;20198;-80
2022/03/12 03:33:26;;;;;;;19.27;12.75;;;;;;;-1.34;78.68;95797.63;5034812;28;20198;-80
2022/03/12 03:35:53;;;;;;;18.98;13.40;;;;;;;-1.36;78.94;95802.81;5034769;28;20200;-80
2022/03/12 03:38:20;;;;;;;22.25;12.80;;;;;;;-1.30;80.80;95801.81;5034696;28;20218;-81
2022/03/12 03:40:47;;;;;;;14.52;11.10;;;;;;;-1.25;80.35;95802.53;5034935;28;20232;-80
2022/03/12 03:43:16;;;;;;;19.75;10.70;;;;;;;-1.25;79.37;95800.81;5034365;28;20203;-80
2022/03/12 03:45:44;;;;;;;13.90;9.38;;;;;;;-1.16;79.40;95798.88;5034660;28;20211;-80
2022/03/12 03:48:15;;;;;;;14.85;9.82;;;;;;;-1.17;79.91;95799.75;5034146;28;20199;-80
2022/03/12 03:50:43;;;;;;;11.60;9.20;;;;;;;-1.09;79.85;95801.28;5034439;28;20190;-81
2022/03/12 03:53:12;;;;;;;12.93;9.25;;;;;;;-1.17;80.19;95792.03;5034590;28;20184;-79
2022/03/12 03:55:40;;;;;;;13.45;8.90;;;;;;;-1.05;79.33;95807.22;5034560;28;20199;-81
2022/03/12 03:58:07;;;;;;;12.18;8.57;;;;;;;-1.04;78.62;95804.59;5034149;28;20559;-79
2022/03/12 04:00:34;;;;;;;13.55;8.45;;;;;;;-1.01;78.25;95804.50;4999732;28;20202;-80
2022/03/12 04:03:04;;;;;;;12.68;7.80;;;;;;;-0.96;78.39;95812.13;5034207;28;20204;-80
2022/03/12 04:05:35;;;;;;;9.88;7.65;;;;;;;-0.98;77.87;95812.16;5034677;28;20192;-78
2022/03/12 04:08:04;;;;;;;11.77;8.30;;;;;;;-1.01;77.80;95807.09;5034241;28;20193;-80
2022/03/12 04:24:02;;;;;;;12.45;9.65;;;;;;;-0.95;77.91;95818.97;5032941;28;20218;-81
2022/03/12 04:26:30;;;;;;;11.75;9.00;;;;;;;-0.94;77.38;95823.22;5033501;28;20199;-80
2022/03/12 04:28:58;;;;;;;15.18;9.23;;;;;;;-0.92;76.55;95824.03;5034147;28;20605;-83
2022/03/12 04:31:24;;;;;;;15.73;8.98;;;;;;;-0.91;76.24;95828.28;5033861;28;20223;-81
2022/03/12 04:33:52;;;;;;;17.50;9.38;;;;;;;-0.87;76.91;95831.63;5033351;28;20561;-81
2022/03/12 04:36:19;;;;;;;20.92;11.05;;;;;;;-0.85;76.30;95832.47;5032869;28;20207;-80
2022/03/12 04:38:46;;;;;;;21.45;10.68;;;;;;;-0.85;76.34;95838.47;5033067;28;20235;-81
2022/03/12 04:41:15;;;;;;;15.00;11.48;;;;;;;-0.95;76.18;95842.13;5033245;28;20216;-80
2022/03/12 04:43:42;;;;;;;22.73;14.55;;;;;;;-1.03;76.38;95841.50;5033007;28;20735;-83
2022/03/12 04:46:09;;;;;;;34.35;17.55;;;;;;;-1.05;76.44;95845.84;5033175;28;20233;-81
2022/03/12 04:48:36;;;;;;;30.50;17.85;;;;;;;-1.21;77.00;95854.78;5015115;28;20204;-80
2022/03/12 04:51:03;;;;;;;37.17;16.60;;;;;;;-1.31;77.45;95852.44;4998667;28;20568;-82
2022/03/12 04:53:30;;;;;;;26.42;14.68;;;;;;;-1.43;78.07;95857.91;5033328;28;20214;-81
2022/03/12 04:55:57;;;;;;;21.52;13.77;;;;;;;-1.49;78.62;95854.59;5033112;28;20229;-82
2022/03/12 04:58:26;;;;;;;31.00;15.95;;;;;;;-1.69;78.35;95853.31;5032747;28;20753;-82
2022/03/12 05:00:53;;;;;;;28.60;16.58;;;;;;;-1.83;79.94;95857.91;5015002;28;20560;-82
2022/03/12 05:03:21;;;;;;;30.40;20.90;;;;;;;-1.90;80.13;95857.19;5033392;28;20210;-81
2022/03/12 05:05:50;;;;;;;23.52;15.90;;;;;;;-1.98;80.92;95859.09;5033767;28;20900;-82
2022/03/12 05:08:18;;;;;;;21.98;13.35;;;;;;;-1.95;80.88;95859.00;5032998;28;20206;-81
2022/03/12 05:10:50;;;;;;;23.30;14.55;;;;;;;-1.87;80.56;95864.84;5033112;28;20199;-81
2022/03/12 05:13:22;;;;;;;24.52;13.15;;;;;;;-2.10;80.73;95867.03;5033153;28;20192;-83
2022/03/12 05:15:52;;;;;;;19.45;12.35;;;;;;;-2.11;81.69;95875.63;5033149;28;20195;-81
2022/03/12 05:28:27;;;;;;;26.98;16.27;;;;;;;-1.75;80.09;95878.31;5044486;28;20189;-82
2022/03/12 05:30:59;;;;;;;29.42;16.27;;;;;;;-1.59;80.05;95882.25;5053811;28;20237;-83
2022/03/12 05:33:27;;;;;;;32.55;15.65;;;;;;;-1.48;78.48;95884.59;5053392;28;20232;-84
2022/03/12 05:35:55;;;;;;;26.83;14.68;;;;;;;-1.38;76.89;95892.09;5053357;28;20202;-84
2022/03/12 05:38:23;;;;;;;37.13;15.65;;;;;;;-1.35;76.88;95891.16;5053108;28;20208;-83
2022/03/12 05:40:50;;;;;;;31.88;17.55;;;;;;;-1.33;77.11;95913.41;5051802;28;20261;-84
2022/03/12 05:43:18;;;;;;;28.58;17.23;;;;;;;-1.37;77.25;95900.66;5033198;28;20192;-85
2022/03/12 05:45:47;;;;;;;40.75;20.85;;;;;;;-1.38;76.67;95912.69;5036178;28;20196;-84
2022/03/12 05:48:17;;;;;;;51.80;30.20;;;;;;;-1.54;77.76;95915.59;5036752;28;20227;-82
2022/03/12 05:50:48;;;;;;;56.75;29.55;;;;;;;-1.63;78.24;95911.50;5036539;28;20207;-84
2022/03/12 05:53:17;;;;;;;47.28;29.05;;;;;;;-1.63;78.71;95919.22;5035563;28;20207;-84
2022/03/12 05:55:44;;;;;;;53.42;27.25;;;;;;;-1.45;80.46;95923.97;5034999;28;20710;-84
2022/03/12 05:58:14;;;;;;;78.53;40.42;;;;;;;-0.98;79.24;95916.91;5035159;28;20238;-84
2022/03/12 06:00:41;;;;;;;77.97;41.90;;;;;;;-0.62;77.19;95921.19;5035073;28;20667;-82
2022/03/12 06:03:10;;;;;;;44.75;26.45;;;;;;;-0.10;76.26;95930.16;5035578;28;20208;-83
2022/03/12 06:05:43;;;;;;;42.78;19.58;;;;;;;0.54;74.48;95932.69;5035245;28;20205;-84
2022/03/12 06:08:15;;;;;;;28.13;18.25;;;;;;;0.94;71.76;95929.78;5035432;28;20231;-83
2022/03/12 06:10:45;;;;;;;34.72;19.58;;;;;;;1.51;71.03;95934.84;5018132;28;20660;-84
2022/03/12 06:13:14;;;;;;;40.65;19.63;;;;;;;2.03;68.19;95942.59;5037196;28;20613;-83
2022/03/12 06:15:41;;;;;;;28.50;18.60;;;;;;;2.03;67.26;95945.19;5036670;28;20646;-83
2022/03/12 06:18:08;;;;;;;30.67;18.65;;;;;;;1.60;68.39;95951.78;5034477;28;20236;-84
2022/03/12 06:24:00;;;;;;;30.60;21.02;;;;;;;1.26;70.04;95953.78;5035087;28;20279;-83
2022/03/12 06:26:31;;;;;;;20.90;14.40;;;;;;;1.05;70.68;95956.13;5036325;28;20202;-83
2022/03/12 06:28:59;;;;;;;25.65;16.15;;;;;;;0.87;70.66;95959.28;5002803;28;20213;-84
2022/03/12 06:31:26;;;;;;;23.85;15.65;;;;;;;0.86;71.51;95960.13;5035975;28;20207;-82
2022/03/12 06:33:54;;;;;;;19.42;12.38;;;;;;;0.82;71.27;95963.72;5034222;28;20204;-82
2022/03/12 06:43:09;;;;;;;21.73;13.30;;;;;;;1.87;63.49;95968.13;5055412;28;20196;-79
2022/03/12 06:45:36;;;;;;;16.02;11.40;;;;;;;2.25;63.38;95972.00;5055388;28;20241;-78
2022/03/12 06:48:06;;;;;;;22.77;13.05;;;;;;;2.85;65.08;95967.25;5055611;28;20193;-86
2022/03/12 06:50:33;;;;;;;15.23;12.65;;;;;;;2.83;58.25;95976.81;5055611;28;20207;-79
2022/03/12 07:00:14;;;;;;;10.75;7.95;;;;;;;1.78;55.89;95979.66;5015868;28;20926;-83
2022/03/12 07:02:41;;;;;;;13.52;9.73;;;;;;;1.69;56.07;95984.25;5035175;28;20200;-80
2022/03/12 07:05:09;;;;;;;14.45;10.27;;;;;;;1.57;57.33;95974.31;5035116;28;20191;-80
2022/03/12 07:07:36;;;;;;;10.95;9.25;;;;;;;1.77;58.24;95977.97;5035215;28;20207;-80
2022/03/12 07:10:04;;;;;;;18.00;11.70;;;;;;;1.77;58.13;95982.28;5035060;28;20189;-80
2022/03/12 07:12:31;;;;;;;15.30;9.70;;;;;;;1.74;57.77;95974.63;5016776;28;20210;-80
2022/03/12 07:14:58;;;;;;;16.17;12.10;;;;;;;1.58;56.83;95989.78;5035204;28;20198;-80
2022/03/12 07:17:27;;;;;;;13.32;9.13;;;;;;;1.85;60.31;95991.47;5035226;28;20204;-79
2022/03/12 07:19:54;;;;;;;12.25;9.73;;;;;;;2.24;55.19;95998.78;5034955;28;20226;-80
2022/03/12 07:22:21;;;;;;;16.70;10.05;;;;;;;2.40;54.41;96005.16;5035093;28;20216;-80
2022/03/12 07:24:48;;;;;;;12.13;9.88;;;;;;;2.28;53.50;96008.13;5034778;28;20550;-78
2022/03/12 07:27:15;;;;;;;13.02;9.88;;;;;;;1.91;54.93;96010.28;5034637;28;20190;-78
2022/03/12 07:29:42;;;;;;;13.80;9.90;;;;;;;2.17;55.26;96023.22;5035012;28;20207;-78
2022/03/12 07:32:09;;;;;;;17.95;9.38;;;;;;;2.23;56.51;96014.38;5034639;28;20732;-79
2022/03/12 07:34:37;;;;;;;18.00;12.13;;;;;;;2.39;54.21;96029.34;5034510;28;20283;-78
2022/03/12 07:37:08;;;;;;;16.15;11.00;;;;;;;2.54;53.86;96029.69;5034359;28;20576;-79
2022/03/12 07:39:35;;;;;;;28.75;15.45;;;;;;;2.75;53.71;96034.13;5034558;28;20302;-80
2022/03/12 07:42:03;;;;;;;14.27;10.50;;;;;;;2.77;52.50;96027.16;5034239;28;20203;-79
2022/03/12 07:44:30;;;;;;;16.27;11.00;;;;;;;2.56;52.36;96027.91;5034381;28;20439;-79
2022/03/12 07:46:56;;;;;;;14.65;10.65;;;;;;;2.58;53.73;96023.50;5035199;28;20207;-79
2022/03/12 07:49:25;;;;;;;14.50;9.82;;;;;;;2.66;51.30;96026.69;5035179;28;20191;-79
2022/03/12 07:51:53;;;;;;;13.38;10.30;;;;;;;2.52;51.43;96037.53;5035699;28;20226;-77
2022/03/12 07:54:20;;;;;;;10.50;8.68;;;;;;;2.78;51.18;96018.47;5034928;28;20279;-79
2022/03/12 07:56:47;;;;;;;8.60;7.10;;;;;;;3.04;49.96;96020.94;5036835;28;20206;-79
2022/03/12 07:59:14;;;;;;;14.33;7.70;;;;;;;2.99;48.62;96024.63;5002045;28;20478;-79
2022/03/12 08:01:41;;;;;;;7.78;6.72;;;;;;;3.07;51.83;96014.81;5035174;28;20469;-80
2022/03/12 08:04:08;;;;;;;7.57;6.57;;;;;;;2.80;46.81;96024.44;5035050;28;20240;-79
2022/03/12 08:06:35;;;;;;;12.07;7.57;;;;;;;2.83;46.96;96028.66;5034293;28;20434;-80
2022/03/12 08:09:04;;;;;;;11.50;7.35;;;;;;;2.56;47.92;96031.34;5035206;28;20207;-79
2022/03/12 08:11:32;;;;;;;15.68;8.80;;;;;;;2.42;49.63;96018.03;5034534;28;20196;-80
2022/03/12 08:14:02;;;;;;;11.60;7.60;;;;;;;2.38;48.35;96019.03;5034579;28;20195;-80
2022/03/12 08:16:30;;;;;;;15.43;9.65;;;;;;;2.46;50.28;96029.97;5032417;28;20606;-80
2022/03/12 08:18:57;;;;;;;22.60;12.45;;;;;;;2.23;48.44;96033.34;5034397;28;20223;-79
2022/03/12 08:21:24;;;;;;;17.38;11.88;;;;;;;2.01;50.63;96027.19;5033874;28;20200;-79
2022/03/12 08:23:51;;;;;;;44.30;24.73;;;;;;;2.33;48.67;96024.41;5034185;28;20195;-79
2022/03/12 08:26:20;;;;;;;16.80;9.85;;;;;;;2.78;49.07;96026.25;5033709;28;20674;-77
2022/03/12 08:28:47;;;;;;;11.03;8.57;;;;;;;2.76;47.42;96033.22;4999146;28;20727;-79
2022/03/12 08:31:15;;;;;;;19.10;10.27;;;;;;;2.73;48.33;96025.56;5034066;28;20449;-79
2022/03/12 08:33:42;;;;;;;13.43;8.43;;;;;;;2.54;47.74;96037.47;5034413;28;20199;-78
2022/03/12 08:36:09;;;;;;;9.93;6.50;;;;;;;2.48;46.83;96034.19;5033723;28;20200;-79
2022/03/12 08:38:38;;;;;;;11.63;7.93;;;;;;;2.33;46.32;96024.41;5033691;28;20219;-79
2022/03/12 08:41:07;;;;;;;13.15;9.05;;;;;;;2.33;47.73;96039.94;5033807;28;20433;-80
2022/03/12 08:43:36;;;;;;;23.52;12.00;;;;;;;1.80;48.17;96045.13;5033978;28;20192;-79
2022/03/12 08:46:05;;;;;;;15.82;11.23;;;;;;;1.68;49.56;96040.34;4999167;28;20885;-79
2022/03/12 08:48:32;;;;;;;10.95;8.00;;;;;;;1.39;49.47;96042.97;5033559;28;20630;-79
2022/03/12 08:50:59;;;;;;;11.23;8.07;;;;;;;1.53;51.68;96035.66;5033449;28;20188;-77
2022/03/12 08:53:26;;;;;;;12.43;8.52;;;;;;;1.65;52.41;96035.25;5034910;28;20199;-78
2022/03/12 08:55:53;;;;;;;11.23;9.55;;;;;;;1.69;53.18;96030.81;5034222;28;20207;-80
2022/03/12 08:58:21;;;;;;;9.48;7.70;;;;;;;1.58;49.20;96028.59;5035129;28;20202;-81
2022/03/12 09:00:52;;;;;;;14.82;10.65;;;;;;;1.49;51.25;96034.91;5034577;28;20237;-79
2022/03/12 09:03:19;;;;;;;25.60;16.95;;;;;;;1.27;50.92;96035.59;5034556;28;20231;-80
2022/03/12 09:05:48;;;;;;;24.55;13.30;;;;;;;1.27;53.17;96022.69;5033078;28;20241;-80
2022/03/12 09:08:15;;;;;;;13.38;8.98;;;;;;;1.39;51.29;96032.63;5033780;28;20627;-79
2022/03/12 09:10:42;;;;;;;14.35;8.50;;;;;;;1.33;51.86;96040.59;5016075;28;20257;-82
2022/03/12 09:13:12;;;;;;;10.75;8.55;;;;;;;1.00;51.80;96042.44;5035997;28;20190;-79
2022/03/12 09:15:39;;;;;;;23.33;11.85;;;;;;;0.91;53.00;96044.41;5035810;28;20203;-79
2022/03/12 09:18:08;;;;;;;17.85;10.30;;;;;;;0.79;54.11;96033.56;5036141;28;20226;-79
2022/03/12 09:20:38;;;;;;;15.80;9.40;;;;;;;0.64;54.48;96049.50;5038352;28;20592;-79
2022/03/12 09:23:05;;;;;;;15.90;12.15;;;;;;;0.72;52.64;96061.31;5037391;28;20205;-79
2022/03/12 09:25:32;;;;;;;17.05;11.75;;;;;;;0.64;54.86;96059.81;5038901;28;20211;-79
2022/03/12 09:27:59;;;;;;;14.48;8.45;;;;;;;0.54;55.90;96056.63;5019534;28;20202;-80
2022/03/12 09:30:26;;;;;;;15.52;10.02;;;;;;;0.54;57.11;96062.63;5037848;28;20556;-80
2022/03/12 09:32:53;;;;;;;19.50;9.23;;;;;;;0.50;55.73;96057.59;5036773;28;20204;-79
2022/03/12 09:35:23;;;;;;;12.98;8.80;;;;;;;0.49;54.77;96061.06;5036767;28;20233;-79
2022/03/12 09:37:50;;;;;;;14.63;10.57;;;;;;;0.63;54.32;96055.56;5036995;28;20204;-79
2022/03/12 09:40:17;;;;;;;58.53;32.97;;;;;;;0.72;54.17;96055.28;5037101;28;20253;-79
2022/03/12 09:42:44;;;;;;;21.08;13.80;;;;;;;0.66;54.18;96056.31;5037031;28;20255;-80
2022/03/12 09:45:12;;;;;;;21.75;10.63;;;;;;;0.67;53.46;96052.84;5036951;28;20657;-78
2022/03/12 09:47:39;;;;;;;15.93;11.30;;;;;;;1.04;53.99;96046.63;5036706;28;20196;-79
2022/03/12 09:50:07;;;;;;;9.48;8.40;;;;;;;1.46;50.21;96039.34;5036994;28;20745;-79
2022/03/12 09:52:36;;;;;;;13.10;7.68;;;;;;;1.63;50.39;96038.78;5035433;28;20203;-79
2022/03/12 09:55:04;;;;;;;19.63;8.60;;;;;;;1.80;50.78;96039.97;5037803;28;20293;-79
2022/03/12 09:57:31;;;;;;;9.88;7.65;;;;;;;1.71;47.62;96044.56;5037322;28;20282;-79
2022/03/12 09:59:58;;;;;;;9.60;6.68;;;;;;;1.75;49.06;96044.44;5037672;28;20229;-79
2022/03/12 10:02:25;;;;;;;7.70;6.75;;;;;;;1.80;48.51;96054.63;5018689;28;20227;-79
2022/03/12 10:04:53;;;;;;;10.73;8.95;;;;;;;1.98;48.74;96043.66;5036397;28;20798;-79
2022/03/12 10:07:20;;;;;;;10.48;7.82;;;;;;;2.11;44.06;96036.38;5036804;28;20213;-79
2022/03/12 10:09:48;;;;;;;13.40;8.30;;;;;;;2.17;44.23;96049.94;5036834;28;20230;-80
2022/03/12 10:12:15;;;;;;;8.27;6.63;;;;;;;2.35;43.35;96045.91;5001859;28;20537;-79
2022/03/12 10:14:42;;;;;;;18.10;8.45;;;;;;;2.46;43.33;96042.94;5050118;28;20197;-78
2022/03/12 10:17:10;;;;;;;8.20;6.30;;;;;;;2.56;42.33;96035.69;5056191;28;20191;-80
2022/03/12 10:19:37;;;;;;;10.37;6.57;;;;;;;2.55;43.79;96041.75;5056296;28;21042;-80
2022/03/12 10:22:05;;;;;;;12.63;7.20;;;;;;;2.49;44.35;96040.22;5056285;28;20461;-79
2022/03/12 10:24:33;;;;;;;13.15;8.23;;;;;;;2.51;44.48;96037.59;5056197;28;20540;-79
2022/03/12 10:27:01;;;;;;;8.73;6.20;;;;;;;2.71;44.12;96028.22;5056964;28;20695;-79
2022/03/12 10:29:28;;;;;;;14.57;7.60;;;;;;;2.90;44.72;96023.22;5058099;28;20434;-80
2022/03/12 10:31:55;;;;;;;15.90;9.27;;;;;;;2.69;45.18;96026.59;5056098;28;20830;-80
2022/03/12 10:34:24;;;;;;;10.47;7.30;;;;;;;2.09;46.32;96020.88;5055912;28;20436;-78
2022/03/12 10:36:53;;;;;;;9.13;6.63;;;;;;;1.74;47.01;96028.97;5056318;28;20443;-78
2022/03/12 10:39:31;;;;;;;10.88;6.57;;;;;;;1.58;46.06;96033.78;5055594;28;20221;-79
2022/03/12 10:42:04;;;;;;;6.57;4.70;;;;;;;1.53;45.35;96026.16;5035724;28;20283;-80
2022/03/12 10:44:35;;;;;;;7.32;5.85;;;;;;;1.70;45.75;96017.00;5037189;28;20204;-80
2022/03/12 10:47:02;;;;;;;8.88;5.90;;;;;;;1.62;48.74;96014.66;5035475;28;20192;-79
2022/03/12 10:49:29;;;;;;;7.70;5.45;;;;;;;1.45;47.72;96010.03;5035751;28;20204;-82
2022/03/12 10:51:58;;;;;;;8.05;5.80;;;;;;;1.43;48.26;96027.31;5035370;28;20187;-80
2022/03/12 10:54:25;;;;;;;8.93;6.97;;;;;;;1.65;47.67;96003.38;5035744;28;20196;-80
2022/03/12 10:56:54;;;;;;;6.75;5.63;;;;;;;1.84;47.81;96007.06;5017145;28;20207;-81
2022/03/12 11:03:32;;;;;;;10.75;7.72;;;;;;;2.23;48.05;95999.69;5031969;28;20268;-79
2022/03/12 11:06:02;;;;;;;9.20;6.50;;;;;;;2.30;47.25;96003.75;5055358;28;20661;-79
2022/03/12 11:08:30;;;;;;;6.40;5.68;;;;;;;1.80;44.62;95995.97;5055029;28;20195;-79
2022/03/12 11:10:59;;;;;;;5.60;4.38;;;;;;;1.73;45.06;95996.19;5054996;28;20219;-80
2022/03/12 11:13:37;;;;;;;8.15;5.00;;;;;;;1.66;45.32;96000.72;5058040;28;20200;-80
2022/03/12 11:16:20;;;;;;;6.55;5.95;;;;;;;1.34;45.84;95998.31;5054761;28;20905;-79
2022/03/12 11:18:59;;;;;;;9.15;5.90;;;;;;;1.26;46.94;96000.31;5055505;28;20499;-80
2022/03/12 11:21:33;;;;;;;7.28;5.35;;;;;;;1.39;46.55;95994.69;5055069;28;20233;-80
2022/03/12 11:24:00;;;;;;;7.50;6.47;;;;;;;1.41;47.71;95990.31;5055854;28;20528;-79
2022/03/12 11:26:29;;;;;;;6.10;5.47;;;;;;;1.51;47.28;95985.72;5054683;28;20198;-78
2022/03/12 11:28:58;;;;;;;10.15;5.90;;;;;;;1.03;47.21;95972.56;5054620;28;20186;-78
2022/03/12 11:31:42;;;;;;;7.93;6.45;;;;;;;1.13;47.31;95969.66;5054705;28;20647;-79
2022/03/12 11:34:24;;;;;;;8.75;6.30;;;;;;;1.35;47.82;95971.56;5054778;28;20198;-88
2022/03/12 11:37:17;;;;;;;12.88;6.90;;;;;;;1.56;48.32;95978.66;5054326;28;20724;-78
2022/03/12 11:39:47;;;;;;;8.80;6.35;;;;;;;1.47;48.67;95977.22;5012618;28;20323;-78
2022/03/12 11:42:17;;;;;;;13.00;8.38;;;;;;;1.42;48.71;95973.06;5013816;28;20198;-81
2022/03/12 11:44:46;;;;;;;20.92;8.38;;;;;;;1.50;47.82;95981.44;5012657;28;20216;-79
2022/03/12 11:47:14;;;;;;;16.15;7.00;;;;;;;1.48;46.88;95983.22;5010037;28;20214;-81
2022/03/12 11:49:42;;;;;;;14.73;8.40;;;;;;;1.52;46.68;95974.47;4992769;28;20303;-81
2022/03/12 11:52:09;;;;;;;18.33;6.20;;;;;;;1.50;46.59;95968.50;4993301;28;20198;-78
2022/03/12 11:54:43;;;;;;;14.43;6.60;;;;;;;1.14;46.79;95976.50;4993111;28;20680;-78
2022/03/12 12:03:53;;;;;;;5.20;3.63;;;;;;;1.03;44.86;95978.59;5011829;28;20925;-77
2022/03/12 12:06:21;;;;;;;5.00;4.60;;;;;;;0.94;45.88;95991.78;4979837;28;20245;-78
2022/03/12 12:08:48;;;;;;;6.18;4.38;;;;;;;1.15;46.17;95987.69;5012576;28;20279;-78
2022/03/12 12:11:18;;;;;;;11.50;4.90;;;;;;;1.04;47.38;95989.75;4996268;28;20237;-79
2022/03/12 12:13:45;;;;;;;4.82;4.32;;;;;;;1.16;46.71;95985.09;5012201;28;20202;-78
2022/03/12 12:16:15;;;;;;;11.80;5.93;;;;;;;1.31;47.40;95977.72;5030316;28;20213;-77
2022/03/12 12:18:42;;;;;;;9.57;5.95;;;;;;;1.45;47.53;95978.16;5053973;28;20613;-78
2022/03/12 12:21:16;;;;;;;12.70;7.40;;;;;;;1.65;47.99;95987.84;5053959;28;20221;-79
2022/03/12 12:23:43;;;;;;;8.65;5.03;;;;;;;1.73;45.94;95989.28;5053976;28;20290;-75
2022/03/12 12:26:13;;;;;;;7.25;5.85;;;;;;;1.90;45.69;95987.91;5054502;28;20622;-78
2022/03/12 12:28:49;;;;;;;8.18;7.13;;;;;;;1.76;45.26;95986.63;5053856;28;20203;-79
2022/03/12 12:31:20;;;;;;;9.20;6.15;;;;;;;1.75;46.59;95990.09;5053452;28;20198;-77
2022/03/12 12:33:47;;;;;;;9.77;6.88;;;;;;;1.60;46.82;95995.75;5053804;28;20204;-80
2022/03/12 12:36:16;;;;;;;5.40;4.70;;;;;;;1.23;47.17;95996.06;5053411;28;20204;-79
2022/03/12 12:39:05;;;;;;;6.95;5.75;;;;;;;1.48;47.62;95988.41;5054284;28;20230;-79
2022/03/12 12:41:52;;;;;;;10.80;7.90;;;;;;;1.44;46.96;95999.72;5053960;28;20217;-78
2022/03/12 12:44:36;;;;;;;9.63;5.90;;;;;;;1.48;47.76;95976.31;5053701;28;20249;-79